createdAt,value
2023-01-30T00:01:57.371Z,12.2
2023-01-30T00:03:57.128Z,14.9
2023-01-30T00:06:00.499Z,6.1
2023-01-30T00:08:00.369Z,20.6
2023-01-30T00:10:00.217Z,5
2023-01-30T00:12:00.136Z,17
2023-01-30T00:13:59.901Z,20.1
2023-01-30T00:15:59.795Z,21.8
2023-01-30T00:17:59.557Z,17.1
2023-01-30T00:20:02.862Z,14.5
2023-01-30T00:22:02.768Z,1.5
2023-01-30T00:24:02.457Z,3.9
2023-01-30T00:26:24.354Z,19.3
2023-01-30T00:28:24.184Z,10.9
2023-01-30T00:30:24.088Z,7.3
2023-01-30T00:32:27.389Z,32.3
2023-01-30T00:34:27.144Z,5.3
2023-01-30T00:38:26.638Z,4.3
2023-01-30T00:44:26.279Z,7
2023-01-30T00:46:29.349Z,10.1
2023-01-30T00:48:29.154Z,4.2
2023-01-30T00:52:28.885Z,5.2
2023-01-30T00:54:28.719Z,7.9
2023-01-30T00:56:28.578Z,17.4
2023-01-30T00:58:28.432Z,7.1
2023-01-30T01:00:31.613Z,10.9
2023-01-30T01:10:30.515Z,4
2023-01-30T01:12:30.411Z,11.7
2023-01-30T01:14:33.674Z,11.7
2023-01-30T01:16:33.601Z,19.7
2023-01-30T01:18:33.368Z,7.6
2023-01-30T01:19:35.036Z,16
2023-01-30T01:21:34.843Z,7.1
2023-01-30T01:23:34.556Z,9.2
2023-01-30T01:25:34.267Z,4.1
2023-01-30T01:27:37.446Z,2.7
2023-01-30T01:29:37.190Z,13.6
2023-01-30T01:31:37.180Z,18.5
2023-01-30T01:33:36.856Z,13.1
2023-01-30T01:35:36.649Z,18.4
2023-01-30T01:37:36.499Z,17.4
2023-01-30T01:39:36.341Z,15.1
2023-01-30T01:41:39.589Z,16.5
2023-01-30T01:43:39.344Z,8.7
2023-01-30T01:45:39.155Z,10.3
2023-01-30T01:49:38.592Z,5.8
2023-01-30T01:51:38.342Z,4.6
2023-01-30T01:53:38.179Z,14.8
2023-01-30T01:55:41.227Z,2.5
2023-01-30T01:57:41.005Z,4.4
2023-01-30T01:59:40.762Z,20.7
2023-01-30T02:01:40.562Z,6.4
2023-01-30T02:05:40.103Z,6.6
2023-01-30T02:11:42.813Z,7.3
2023-01-30T02:13:42.531Z,4.1
2023-01-30T02:24:46.572Z,6.7
2023-01-30T02:26:46.345Z,8
2023-01-30T02:28:46.098Z,5.9
2023-01-30T02:30:45.985Z,4.6
2023-01-30T02:32:45.604Z,11.2
2023-01-30T02:34:45.288Z,1.9
2023-01-30T02:36:48.427Z,10
2023-01-30T02:38:48.140Z,4.1
2023-01-30T02:40:47.917Z,12.4
2023-01-30T02:42:47.639Z,4.1
2023-01-30T02:44:47.749Z,0.8
2023-01-30T02:46:47.504Z,6
2023-01-30T02:48:47.246Z,3.4
2023-01-30T02:50:50.351Z,3.3
2023-01-30T02:52:50.122Z,5.4
2023-01-30T02:54:49.827Z,8.4
2023-01-30T03:02:49.003Z,5
2023-01-30T03:04:52.138Z,3.2
2023-01-30T03:06:51.887Z,4.6
2023-01-30T03:08:51.666Z,1.9
2023-01-30T03:09:53.187Z,3
2023-01-30T03:11:52.931Z,3.6
2023-01-30T03:13:52.665Z,5.7
2023-01-30T03:15:52.460Z,3
2023-01-30T03:17:55.678Z,8.2
2023-01-30T03:19:55.414Z,1.2
2023-01-30T03:21:55.135Z,1.1
2023-01-30T03:23:54.859Z,2.3
2023-01-30T03:25:54.592Z,2.7
2023-01-30T03:27:54.364Z,1.9
2023-01-30T03:29:54.060Z,3.1
2023-01-30T03:31:57.333Z,1.2
2023-01-30T03:33:57.017Z,4.2
2023-01-30T03:35:56.794Z,1.5
2023-01-30T03:37:56.550Z,2.4
2023-01-30T03:41:56.003Z,1.1
2023-01-30T03:43:55.784Z,1.5
2023-01-30T03:45:59.030Z,1.9
2023-01-30T03:47:58.847Z,1.1
2023-01-30T03:49:58.552Z,4.9
2023-01-30T03:51:58.326Z,1.3
2023-01-30T03:55:57.808Z,0.6
2023-01-30T03:57:57.557Z,4.5
2023-01-30T04:00:00.665Z,3.9
2023-01-30T04:02:00.392Z,2
2023-01-30T04:04:00.164Z,2.9
2023-01-30T04:06:22.251Z,3.1
2023-01-30T04:08:21.980Z,1.8
2023-01-30T04:10:21.735Z,2.5
2023-01-30T04:12:24.891Z,2.3
2023-01-30T04:14:24.699Z,3.4
2023-01-30T04:16:24.485Z,0.8
2023-01-30T04:20:23.917Z,2.6
2023-01-30T04:26:26.575Z,2.3
2023-01-30T04:28:27.794Z,0.9
2023-01-30T04:30:27.530Z,4.6
2023-01-30T04:32:27.291Z,0.7
2023-01-30T04:34:27.001Z,0.5
2023-01-30T04:38:26.471Z,5.8
2023-01-30T04:50:28.380Z,2.1
2023-01-30T04:52:28.174Z,2.2
2023-01-30T05:05:31.739Z,0.5
2023-01-30T05:07:34.986Z,2.2
2023-01-30T05:09:34.594Z,2.8
2023-01-30T05:11:34.342Z,1.6
2023-01-30T05:13:34.095Z,1
2023-01-30T05:15:33.815Z,1.1
2023-01-30T05:23:36.089Z,0.9
2023-01-30T05:25:35.861Z,2.4
2023-01-30T05:27:35.618Z,2
2023-01-30T05:29:35.343Z,1.9
2023-01-30T05:31:35.124Z,4.1
2023-01-30T05:33:34.800Z,1.7
2023-01-30T05:35:37.949Z,2
2023-01-30T05:37:37.701Z,1.7
2023-01-30T05:39:37.403Z,0.6
2023-01-30T05:41:37.199Z,1.2
2023-01-30T05:43:36.907Z,1.2
2023-01-30T05:45:36.629Z,3.1
2023-01-30T05:47:36.378Z,2.1
2023-01-30T05:49:39.488Z,1.3
2023-01-30T05:51:39.225Z,0.7
2023-01-30T05:54:40.573Z,1.8
2023-01-30T05:56:40.271Z,1.5
2023-01-30T06:02:43.016Z,1.5
2023-01-30T06:04:42.707Z,0.6
2023-01-30T06:06:42.468Z,1.2
2023-01-30T06:08:42.194Z,1.7
2023-01-30T06:10:41.929Z,0.9
2023-01-30T06:12:41.748Z,2.6
2023-01-30T06:16:44.601Z,0.2
2023-01-30T06:18:44.310Z,1.3
2023-01-30T06:22:43.899Z,0.4
2023-01-30T06:24:43.626Z,0.4
2023-01-30T06:26:43.508Z,1.8
2023-01-30T06:30:46.501Z,1.1
2023-01-30T06:32:46.216Z,1.6
2023-01-30T06:34:45.932Z,1.8
2023-01-30T06:36:45.696Z,1.8
2023-01-30T06:38:45.534Z,1.6
2023-01-30T06:40:45.349Z,1.8
2023-01-30T06:42:45.118Z,0.9
2023-01-30T06:46:48.165Z,1.3
2023-01-30T06:49:49.684Z,1.6
2023-01-30T06:57:52.359Z,0.9
2023-01-30T06:59:52.223Z,1.2
2023-01-30T07:01:52.140Z,0.2
2023-01-30T07:03:51.783Z,0.2
2023-01-30T07:10:05.965Z,0.8
2023-01-30T07:11:54.393Z,1.2
2023-01-30T07:13:54.169Z,1.3
2023-01-30T07:15:53.948Z,0.7
2023-01-30T07:19:53.569Z,0.3
2023-01-30T07:21:53.378Z,0.6
2023-01-30T07:27:56.236Z,0.4
2023-01-30T07:29:55.896Z,1.2
2023-01-30T07:33:55.507Z,2.5
2023-01-30T07:35:55.289Z,1
2023-01-30T07:37:55.136Z,0.3
2023-01-30T07:39:58.350Z,0.3
2023-01-30T07:41:58.133Z,0.2
2023-01-30T07:43:57.843Z,0.9
2023-01-30T07:48:19.681Z,1.1
2023-01-30T07:52:22.575Z,1.6
2023-01-30T07:54:22.507Z,2
2023-01-30T07:56:22.233Z,0.8
2023-01-30T07:58:21.916Z,1.9
2023-01-30T08:00:21.725Z,2.5
2023-01-30T08:04:21.311Z,0.6
2023-01-30T08:06:24.433Z,2.7
2023-01-30T08:08:24.216Z,3
2023-01-30T08:10:23.935Z,0.7
2023-01-30T08:12:23.742Z,1.5
2023-01-30T08:14:23.467Z,3.8
2023-01-30T08:16:23.371Z,1.9
2023-01-30T08:18:23.068Z,2.9
2023-01-30T08:20:26.271Z,1.5
2023-01-30T08:22:25.977Z,0.4
2023-01-30T08:24:25.721Z,5.4
2023-01-30T08:26:25.468Z,1.7
2023-01-30T08:28:25.332Z,1.5
2023-01-30T08:30:25.128Z,2.6
2023-01-30T08:32:24.816Z,0.2
2023-01-30T08:34:28.001Z,3.2
2023-01-30T08:36:27.771Z,0.4
2023-01-30T08:38:27.533Z,1.5
2023-01-30T08:43:28.608Z,3.8
2023-01-30T08:45:28.385Z,1.9
2023-01-30T09:03:32.955Z,1.9
2023-01-30T09:13:31.826Z,0.5
2023-01-30T09:17:34.733Z,1.7
2023-01-30T09:19:34.463Z,0.4
2023-01-30T09:21:34.196Z,1.4
2023-01-30T09:23:33.902Z,1.7
2023-01-30T09:25:33.690Z,2.5
2023-01-30T09:27:33.408Z,1.4
2023-01-30T09:29:36.516Z,1.2
2023-01-30T09:31:36.373Z,2.2
2023-01-30T09:33:36.038Z,1.5
2023-01-30T09:34:37.592Z,2.5
2023-01-30T09:36:37.376Z,1.1
2023-01-30T09:38:37.074Z,1.4
2023-01-30T09:40:36.816Z,1.9
2023-01-30T09:42:40.037Z,3.2
2023-01-30T09:46:39.477Z,4.5
2023-01-30T09:48:42.499Z,1.9
2023-01-30T09:50:38.969Z,0.6
2023-01-30T10:08:40.036Z,1
2023-01-30T10:10:43.125Z,1.2
2023-01-30T10:12:42.885Z,0.5
2023-01-30T10:14:44.169Z,1.8
2023-01-30T10:16:43.881Z,2.5
2023-01-30T10:18:43.618Z,0.6
2023-01-30T10:20:43.359Z,1.2
2023-01-30T10:22:43.099Z,3.3
2023-01-30T10:24:46.183Z,1.6
2023-01-30T10:26:45.957Z,0.8
2023-01-30T10:28:49.835Z,2.1
2023-01-30T10:29:47.226Z,0.7
2023-01-30T10:31:47.077Z,1.8
2023-01-30T10:35:46.448Z,1.1
2023-01-30T10:41:49.018Z,1.6
2023-01-30T10:43:48.766Z,2.1
2023-01-30T10:45:48.487Z,0.6
2023-01-30T10:47:48.313Z,0.5
2023-01-30T10:49:47.939Z,0.7
2023-01-30T10:51:51.080Z,0.8
2023-01-30T10:59:49.939Z,3
2023-01-30T11:01:49.739Z,1.8
2023-01-30T11:07:52.285Z,3
2023-01-30T11:09:52.015Z,2
2023-01-30T11:11:51.749Z,1.3
2023-01-30T11:13:51.509Z,2.3
2023-01-30T11:15:51.254Z,4.2
2023-01-30T11:17:50.950Z,0.9
2023-01-30T11:19:54.090Z,0.7
2023-01-30T11:21:53.832Z,2.6
2023-01-30T11:23:53.535Z,1.8
2023-01-30T11:26:15.411Z,1.6
2023-01-30T11:28:15.109Z,1
2023-01-30T11:30:15.038Z,0.9
2023-01-30T11:32:18.017Z,0.6
2023-01-30T11:40:18.532Z,4.1
2023-01-30T11:50:24.398Z,2.6
2023-01-30T11:54:18.197Z,1.5
2023-01-30T12:08:24.757Z,3
2023-01-30T12:10:20.426Z,1.5
2023-01-30T12:12:19.022Z,0.5
2023-01-30T12:14:22.153Z,0.9
2023-01-30T12:16:21.967Z,1.1
2023-01-30T12:18:21.578Z,2.7
2023-01-30T12:19:23.117Z,2.1
2023-01-30T12:21:22.868Z,2.7
2023-01-30T12:23:22.654Z,1.7
2023-01-30T12:27:25.370Z,0.9
2023-01-30T12:29:25.059Z,1.4
2023-01-30T12:31:24.784Z,2.5
2023-01-30T12:33:24.598Z,1.8
2023-01-30T12:35:24.203Z,2.7
2023-01-30T12:37:23.922Z,1.1
2023-01-30T12:39:23.635Z,1.7
2023-01-30T12:43:26.450Z,0.8
2023-01-30T12:47:25.918Z,2.4
2023-01-30T12:49:25.617Z,2.1
2023-01-30T12:51:25.317Z,1.7
2023-01-30T12:53:25.049Z,1.6
2023-01-30T12:55:28.187Z,1.6
2023-01-30T12:57:27.859Z,1.1
2023-01-30T12:59:27.615Z,0.1
2023-01-30T13:03:27.030Z,1.3
2023-01-30T13:05:26.729Z,0.8
2023-01-30T13:07:26.437Z,3.6
2023-01-30T13:09:29.562Z,8.6
2023-01-30T13:11:29.279Z,1.8
2023-01-30T13:13:28.982Z,1.9
2023-01-30T13:14:30.515Z,0.5
2023-01-30T13:16:30.302Z,1.4
2023-01-30T13:18:29.976Z,1.6
2023-01-30T13:22:32.794Z,3.1
2023-01-30T13:24:32.504Z,4.8
2023-01-30T13:26:32.218Z,3.9
2023-01-30T13:28:31.929Z,2.9
2023-01-30T13:32:31.396Z,1.7
2023-01-30T13:34:31.051Z,3.7
2023-01-30T13:38:33.861Z,2.3
2023-01-30T13:42:33.264Z,0.7
2023-01-30T13:44:32.995Z,3.6
2023-01-30T13:46:32.742Z,3.5
2023-01-30T13:50:35.540Z,3
2023-01-30T13:52:35.244Z,0.5
2023-01-30T13:54:34.961Z,1.9
2023-01-30T13:56:41.827Z,2.9
2023-01-30T14:00:34.103Z,2
2023-01-30T14:02:33.905Z,2.8
2023-01-30T14:04:36.950Z,1.8
2023-01-30T14:06:36.622Z,1
2023-01-30T14:08:36.363Z,1.7
2023-01-30T14:13:37.310Z,1.3
2023-01-30T14:19:39.834Z,1.9
2023-01-30T14:21:39.587Z,1.6
2023-01-30T14:23:39.290Z,0.2
2023-01-30T14:25:38.980Z,0.4
2023-01-30T14:27:38.777Z,1.5
2023-01-30T14:29:38.430Z,0.6
2023-01-30T14:31:41.633Z,1.2
2023-01-30T14:33:41.249Z,1.7
2023-01-30T14:35:40.961Z,0.4
2023-01-30T14:37:40.671Z,1.1
2023-01-30T14:39:40.401Z,0.9
2023-01-30T14:47:46.647Z,3.7
2023-01-30T14:49:42.369Z,0.3
2023-01-30T14:51:42.055Z,0.2
2023-01-30T14:53:41.765Z,1.5
2023-01-30T14:55:41.500Z,1.1
2023-01-30T14:57:41.227Z,0.6
2023-01-30T14:59:44.358Z,0.4
2023-01-30T15:06:03.318Z,2
2023-01-30T15:08:03.047Z,0.1
2023-01-30T15:10:02.755Z,3.5
2023-01-30T15:12:05.853Z,0.3
2023-01-30T15:14:05.593Z,0.8
2023-01-30T15:18:08.158Z,0.7
2023-01-30T15:20:04.796Z,0.2
2023-01-30T15:28:07.057Z,0.5
2023-01-30T15:32:06.539Z,0.6
2023-01-30T15:34:06.219Z,0.5
2023-01-30T15:36:05.926Z,0.1
2023-01-30T15:38:05.704Z,1.7
2023-01-30T15:40:08.813Z,2.9
2023-01-30T15:42:08.528Z,1.4
2023-01-30T15:44:08.245Z,0.7
2023-01-30T15:46:08.061Z,2.2
2023-01-30T15:48:07.691Z,0.9
2023-01-30T15:50:07.416Z,0.3
2023-01-30T15:52:07.181Z,0.7
2023-01-30T15:54:10.285Z,0.6
2023-01-30T15:56:10.037Z,1.6
2023-01-30T15:58:09.743Z,1.9
2023-01-30T15:59:12.882Z,0.7
2023-01-30T16:03:12.478Z,0.7
2023-01-30T16:05:12.211Z,2.3
2023-01-30T16:07:15.334Z,1.1
2023-01-30T16:13:14.635Z,5
2023-01-30T16:15:20.336Z,2.9
2023-01-30T16:17:14.187Z,1.3
2023-01-30T16:19:13.935Z,4.4
2023-01-30T16:21:17.094Z,0.7
2023-01-30T16:23:16.894Z,0.8
2023-01-30T16:25:17.024Z,0.2
2023-01-30T16:27:16.453Z,0.1
2023-01-30T16:29:16.204Z,1.5
2023-01-30T16:31:16.073Z,0.2
2023-01-30T16:33:15.688Z,0.3
2023-01-30T16:35:19.161Z,1.5
2023-01-30T16:37:18.566Z,0.6
2023-01-30T16:39:18.287Z,0.2
2023-01-30T16:43:17.783Z,1.8
2023-01-30T16:45:17.835Z,3.7
2023-01-30T16:47:17.265Z,1
2023-01-30T16:49:20.366Z,0.6
2023-01-30T16:53:19.864Z,0.3
2023-01-30T16:54:21.432Z,2.5
2023-01-30T16:56:21.245Z,0.5
2023-01-30T17:00:21.019Z,1.1
2023-01-30T17:06:23.408Z,1.4
2023-01-30T17:08:23.141Z,0.6
2023-01-30T17:10:22.939Z,1
2023-01-30T17:12:22.724Z,2.7
2023-01-30T17:14:22.545Z,0.6
2023-01-30T17:16:25.757Z,0.1
2023-01-30T17:20:25.329Z,4
2023-01-30T17:22:25.169Z,0.1
2023-01-30T17:24:24.954Z,2.4
2023-01-30T17:28:24.565Z,0.5
2023-01-30T17:30:27.847Z,0.4
2023-01-30T17:32:27.597Z,0.7
2023-01-30T17:34:28.831Z,0.4
2023-01-30T17:36:27.187Z,1.7
2023-01-30T17:38:27.010Z,0.2
2023-01-30T17:48:29.224Z,0.2
2023-01-30T17:55:30.358Z,0.2
2023-01-30T17:57:33.577Z,1.7
2023-01-30T17:59:33.452Z,1.9
2023-01-30T18:01:33.212Z,3.1
2023-01-30T18:03:32.919Z,0.3
2023-01-30T18:05:32.787Z,0.5
2023-01-30T18:07:32.662Z,0.5
2023-01-30T18:09:32.484Z,3.1
2023-01-30T18:11:35.740Z,1.1
2023-01-30T18:15:35.418Z,0.1
2023-01-30T18:17:35.243Z,0.3
2023-01-30T18:27:37.913Z,1
2023-01-30T18:29:37.779Z,0.8
2023-01-30T18:31:37.738Z,0.6
2023-01-30T18:33:37.515Z,1.9
2023-01-30T18:35:37.367Z,2.4
2023-01-30T18:37:37.224Z,0.3
2023-01-30T18:39:40.540Z,2.5
2023-01-30T18:41:40.351Z,1.1
2023-01-30T18:43:40.217Z,1.5
2023-01-30T18:46:01.988Z,2.4
2023-01-30T18:48:01.758Z,0.4
2023-01-30T18:50:01.605Z,0.2
2023-01-30T18:52:04.957Z,0.2
2023-01-30T18:54:04.803Z,1.2
2023-01-30T18:56:04.565Z,1.4
2023-01-30T18:58:04.412Z,2.5
2023-01-30T19:00:04.320Z,0.2
2023-01-30T19:02:04.151Z,0.5
2023-01-30T19:06:08.966Z,0.2
2023-01-30T19:08:07.129Z,0.9
2023-01-30T19:10:07.012Z,0.2
2023-01-30T19:12:06.862Z,5
2023-01-30T19:14:06.641Z,0.4
2023-01-30T19:16:06.432Z,0.2
2023-01-30T19:18:06.269Z,2
2023-01-30T19:20:09.682Z,1.3
2023-01-30T19:22:09.547Z,4.3
2023-01-30T19:24:09.406Z,0.9
2023-01-30T19:26:09.174Z,2.1
2023-01-30T19:30:08.807Z,0.6
2023-01-30T19:32:08.663Z,0.2
2023-01-30T19:34:11.844Z,0.2
2023-01-30T19:36:11.624Z,1
2023-01-30T19:38:11.470Z,1.7
2023-01-30T19:39:13.157Z,3.8
2023-01-30T19:41:13.009Z,0.3
2023-01-30T19:43:12.793Z,1.3
2023-01-30T19:45:12.690Z,1.1
2023-01-30T19:47:16.055Z,0.3
2023-01-30T19:49:16.091Z,0.9
2023-01-30T19:51:15.823Z,0.2
2023-01-30T19:53:15.559Z,2
2023-01-30T19:55:15.432Z,0.4
2023-01-30T19:57:15.327Z,1.8
2023-01-30T19:59:15.197Z,1
2023-01-30T20:01:18.589Z,0.7
2023-01-30T20:03:18.523Z,1.1
2023-01-30T20:05:18.237Z,1.3
2023-01-30T20:13:17.758Z,2.1
2023-01-30T20:15:21.167Z,0.2
2023-01-30T20:23:20.691Z,1.9
2023-01-30T20:25:20.516Z,1.2
2023-01-30T20:27:20.367Z,0.9
2023-01-30T20:29:23.704Z,0.6
2023-01-30T20:31:23.661Z,1.7
2023-01-30T20:33:23.375Z,2.4
2023-01-30T20:34:25.050Z,2
2023-01-30T20:36:25.012Z,0.6
2023-01-30T20:38:24.779Z,0.7
2023-01-30T20:40:24.645Z,0.5
2023-01-30T20:42:28.101Z,0.2
2023-01-30T20:44:27.887Z,0.2
2023-01-30T20:46:27.843Z,2.3
2023-01-30T20:48:27.632Z,0.2
2023-01-30T20:50:27.548Z,0.7
2023-01-30T20:52:27.396Z,0.2
2023-01-30T20:54:27.256Z,0.5
2023-01-30T20:56:30.652Z,0.8
2023-01-30T20:58:30.507Z,0.3
2023-01-30T21:00:30.371Z,0.2
2023-01-30T21:02:30.274Z,0.4
2023-01-30T21:10:33.301Z,1.1
2023-01-30T21:12:33.177Z,0.2
2023-01-30T21:14:33.057Z,0.3
2023-01-30T21:16:32.962Z,0.1
2023-01-30T21:20:32.717Z,0.1
2023-01-30T21:22:32.570Z,0.2
2023-01-30T21:24:35.937Z,0.1
2023-01-30T21:26:35.930Z,0.2
2023-01-30T21:28:35.664Z,2
2023-01-30T21:31:37.750Z,0.6
2023-01-30T21:33:37.108Z,0.5
2023-01-30T21:35:37.010Z,0.5
2023-01-30T21:37:40.370Z,1.1
2023-01-30T21:39:40.272Z,0.4
2023-01-30T21:41:40.204Z,0.4
2023-01-30T21:43:40.206Z,0.4
2023-01-30T21:45:41.517Z,0.2
2023-01-30T21:47:41.371Z,1.8
2023-01-30T21:49:41.200Z,0.8
2023-01-30T21:53:44.371Z,1.7
2023-01-30T21:55:44.241Z,2.7
2023-01-30T21:57:44.138Z,2.6
2023-01-30T21:59:44.005Z,2.1
2023-01-30T22:01:43.931Z,0.2
2023-01-30T22:03:43.817Z,2.2
2023-01-30T22:05:47.150Z,0.2
2023-01-30T22:07:47.040Z,0.1
2023-01-30T22:09:47.058Z,0.1
2023-01-30T22:11:46.810Z,1.5
2023-01-30T22:13:46.685Z,0.3
2023-01-30T22:15:46.585Z,0.4
2023-01-30T22:17:46.449Z,1
2023-01-30T22:19:49.859Z,0.4
2023-01-30T22:21:49.728Z,0.9
2023-01-30T22:23:49.639Z,0.9
2023-01-30T22:26:05.643Z,0.2
2023-01-30T22:28:05.533Z,2.5
2023-01-30T22:30:05.433Z,2.5
2023-01-30T22:36:08.591Z,2.9
2023-01-30T22:38:08.468Z,1.5
2023-01-30T22:40:08.408Z,2
2023-01-30T22:42:08.299Z,1
2023-01-30T22:44:08.143Z,1.8
2023-01-30T22:46:11.547Z,3.2
2023-01-30T22:48:11.419Z,0.3
2023-01-30T22:50:11.317Z,0.2
2023-01-30T22:52:11.205Z,1.5
2023-01-30T22:54:11.103Z,0.3
2023-01-30T22:56:10.976Z,0.6
2023-01-30T22:58:10.859Z,1.4
2023-01-30T23:00:14.306Z,0.2
2023-01-30T23:02:14.207Z,0.2
2023-01-30T23:12:13.595Z,1.6
2023-01-30T23:16:16.961Z,5.1
2023-01-30T23:18:16.800Z,0.3
2023-01-30T23:29:21.434Z,1.4
2023-01-30T23:31:21.467Z,0.2
2023-01-30T23:33:21.216Z,0.4
2023-01-30T23:35:21.676Z,0.2
2023-01-30T23:37:21.043Z,0.3
2023-01-30T23:39:20.926Z,0.3
2023-01-30T23:41:24.316Z,1
2023-01-30T23:43:24.191Z,0.2
2023-01-30T23:45:24.078Z,1.4
2023-01-30T23:47:24.019Z,0.1
2023-01-30T23:49:23.887Z,0.1
2023-01-30T23:51:23.774Z,1.3
2023-01-30T23:53:23.694Z,2.3
2023-01-30T23:55:27.083Z,1.9
2023-01-30T23:57:27.108Z,0.2
2023-01-30T23:59:26.857Z,0.4
